sensor_id;sensor_type;location;lat;lon;timestamp;P1;durP1;ratioP1;P2;durP2;ratioP2
86390;SDS011;77035;45.438;9.192;2024-03-06T00:14:50;3.60;;;2.90;;
86390;SDS011;77035;45.438;9.192;2024-03-06T00:31:52;4.00;;;3.00;;
86390;SDS011;77035;45.438;9.192;2024-03-06T01:01:02;4.10;;;2.70;;
86390;SDS011;77035;45.438;9.192;2024-03-06T01:18:07;4.70;;;3.00;;
86390;SDS011;77035;45.438;9.192;2024-03-06T01:47:17;3.50;;;2.40;;
86390;SDS011;77035;45.438;9.192;2024-03-06T02:04:26;5.20;;;2.80;;
86390;SDS011;77035;45.438;9.192;2024-03-06T02:21:32;5.40;;;4.00;;
86390;SDS011;77035;45.438;9.192;2024-03-06T02:43:34;4.90;;;3.30;;
86390;SDS011;77035;45.438;9.192;2024-03-06T03:12:44;5.50;;;3.60;;
86390;SDS011;77035;45.438;9.192;2024-03-06T03:39:51;5.70;;;5.10;;
86390;SDS011;77035;45.438;9.192;2024-03-06T04:09:03;12.10;;;10.20;;
86390;SDS011;77035;45.438;9.192;2024-03-06T04:26:08;24.00;;;15.80;;
86390;SDS011;77035;45.438;9.192;2024-03-06T04:43:10;11.80;;;8.70;;
86390;SDS011;77035;45.438;9.192;2024-03-06T05:00:14;10.70;;;9.20;;
86390;SDS011;77035;45.438;9.192;2024-03-06T06:18:40;12.30;;;11.00;;
86390;SDS011;77035;45.438;9.192;2024-03-06T06:52:52;9.40;;;7.40;;
86390;SDS011;77035;45.438;9.192;2024-03-06T07:14:56;6.90;;;3.50;;
86390;SDS011;77035;45.438;9.192;2024-03-06T07:32:00;6.40;;;3.60;;
86390;SDS011;77035;45.438;9.192;2024-03-06T07:49:05;5.40;;;3.20;;
86390;SDS011;77035;45.438;9.192;2024-03-06T08:35:22;9.70;;;4.80;;
86390;SDS011;77035;45.438;9.192;2024-03-06T08:57:26;15.00;;;13.20;;
86390;SDS011;77035;45.438;9.192;2024-03-06T09:19:31;12.30;;;11.00;;
86390;SDS011;77035;45.438;9.192;2024-03-06T09:36:47;8.80;;;7.10;;
86390;SDS011;77035;45.438;9.192;2024-03-06T09:46:48;7.50;;;4.60;;
86390;SDS011;77035;45.438;9.192;2024-03-06T09:51:42;8.00;;;4.90;;
86390;SDS011;77035;45.438;9.192;2024-03-06T10:06:50;10.20;;;7.20;;
86390;SDS011;77035;45.438;9.192;2024-03-06T10:43:58;19.00;;;13.10;;
86390;SDS011;77035;45.438;9.192;2024-03-06T11:01:07;15.80;;;11.90;;
86390;SDS011;77035;45.438;9.192;2024-03-06T12:11:24;13.30;;;7.10;;
86390;SDS011;77035;45.438;9.192;2024-03-06T12:33:31;8.80;;;4.70;;
86390;SDS011;77035;45.438;9.192;2024-03-06T13:00:37;4.40;;;2.60;;
86390;SDS011;77035;45.438;9.192;2024-03-06T13:29:52;4.10;;;2.20;;
86390;SDS011;77035;45.438;9.192;2024-03-06T13:57:10;3.40;;;1.80;;
86390;SDS011;77035;45.438;9.192;2024-03-06T15:05:27;5.00;;;2.60;;
86390;SDS011;77035;45.438;9.192;2024-03-06T15:27:36;8.80;;;3.20;;
86390;SDS011;77035;45.438;9.192;2024-03-06T16:06:46;7.80;;;3.20;;
86390;SDS011;77035;45.438;9.192;2024-03-06T16:23:50;6.40;;;3.20;;
86390;SDS011;77035;45.438;9.192;2024-03-06T16:40:57;8.40;;;3.30;;
86390;SDS011;77035;45.438;9.192;2024-03-06T16:57:58;8.10;;;2.70;;
86390;SDS011;77035;45.438;9.192;2024-03-06T18:01:19;16.20;;;9.10;;
86390;SDS011;77035;45.438;9.192;2024-03-06T18:18:26;15.70;;;8.90;;
86390;SDS011;77035;45.438;9.192;2024-03-06T18:35:28;11.90;;;6.20;;
86390;SDS011;77035;45.438;9.192;2024-03-06T19:09:38;13.40;;;6.40;;
86390;SDS011;77035;45.438;9.192;2024-03-06T19:38:50;10.10;;;5.60;;
86390;SDS011;77035;45.438;9.192;2024-03-06T19:43:50;11.10;;;5.50;;
86390;SDS011;77035;45.438;9.192;2024-03-06T20:25:05;7.80;;;5.10;;
86390;SDS011;77035;45.438;9.192;2024-03-06T21:11:14;6.80;;;4.30;;
86390;SDS011;77035;45.438;9.192;2024-03-06T21:23:20;5.70;;;4.50;;
86390;SDS011;77035;45.438;9.192;2024-03-06T21:52:30;9.30;;;5.60;;
86390;SDS011;77035;45.438;9.192;2024-03-06T22:21:35;8.60;;;5.70;;
86390;SDS011;77035;45.438;9.192;2024-03-06T22:33:42;7.10;;;5.50;;
86390;SDS011;77035;45.438;9.192;2024-03-06T22:50:45;9.70;;;6.30;;
86390;SDS011;77035;45.438;9.192;2024-03-06T23:22:55;12.00;;;7.90;;
86390;SDS011;77035;45.438;9.192;2024-03-06T23:52:13;12.90;;;10.00;;
86390;SDS011;77035;45.438;9.192;2024-03-06T23:57:07;17.10;;;12.20;;
